Time;durP1;ratioP1;P1;durP2;ratioP2;P2;SDS_P1;SDS_P2;PMS_P1;PMS_P2;Temp;Humidity;BMP_temperature;BMP_pressure;BME280_temperature;BME280_humidity;BME280_pressure;Samples;Min_cycle;Max_cycle;Signal;HPM_P1;HPM_P2
2022/06/16 00:01:19;;;;;;;6.82;4.82;;;;;;;24.09;57.39;100970.91;4778900;29;20056;-66
2022/06/16 00:03:47;;;;;;;6.63;3.97;;;;;;;24.04;57.27;100979.53;4783481;30;20056;-66
2022/06/16 00:06:15;;;;;;;6.80;4.60;;;;;;;23.93;57.42;100968.09;4786778;29;20063;-66
2022/06/16 00:08:43;;;;;;;5.30;4.72;;;;;;;23.98;57.41;100970.63;4786420;29;20055;-67
2022/06/16 00:11:19;;;;;;;4.95;4.45;;;;;;;24.03;57.01;100961.13;4786534;29;20079;-66
2022/06/16 00:13:49;;;;;;;6.60;4.70;;;;;;;23.98;57.16;100956.66;4801569;29;20059;-67
2022/06/16 00:16:18;;;;;;;5.55;5.00;;;;;;;23.98;57.17;100956.66;4790327;29;20067;-66
2022/06/16 00:18:46;;;;;;;6.97;4.93;;;;;;;23.88;57.45;100963.59;4785085;30;20429;-67
2022/06/16 00:21:15;;;;;;;6.18;4.68;;;;;;;23.92;57.42;100963.69;4790224;29;20527;-67
2022/06/16 00:27:51;;;;;;;4.82;4.32;;;;;;;23.87;57.86;100958.38;4788085;30;20051;-66
2022/06/16 00:30:19;;;;;;;4.68;4.28;;;;;;;23.95;57.11;100970.53;4789934;29;20511;-67
2022/06/16 00:32:47;;;;;;;6.65;4.57;;;;;;;23.95;57.93;100964.94;4789640;30;20058;-66
2022/06/16 00:35:14;;;;;;;4.82;4.30;;;;;;;23.91;57.34;100953.69;4789587;30;20051;-67
2022/06/16 00:37:42;;;;;;;5.55;5.05;;;;;;;23.91;57.92;100953.69;4789566;29;20381;-67
2022/06/16 00:40:11;;;;;;;8.88;5.95;;;;;;;23.92;57.63;100962.88;4803375;29;20047;-67
2022/06/16 00:42:39;;;;;;;6.07;5.38;;;;;;;23.81;57.68;100960.66;4789357;30;20407;-67
2022/06/16 00:46:01;;;;;;;7.25;5.20;;;;;;;23.86;57.87;100974.31;4789077;30;20428;-67
2022/06/16 00:48:38;;;;;;;7.38;4.70;;;;;;;23.86;57.96;100967.94;4769361;30;20570;-67
2022/06/16 00:51:41;;;;;;;6.45;5.18;;;;;;;23.84;57.99;100967.47;4786647;29;20055;-67
2022/06/16 00:54:23;;;;;;;6.00;5.07;;;;;;;23.90;57.88;100963.22;4768117;29;20410;-67
2022/06/16 00:56:55;;;;;;;5.03;4.53;;;;;;;23.88;57.86;100965.59;4802969;29;20078;-67
2022/06/16 00:59:24;;;;;;;6.15;4.90;;;;;;;23.87;58.13;100963.97;4803052;29;20051;-67
2022/06/16 01:01:52;;;;;;;5.75;5.22;;;;;;;23.85;58.04;100961.53;4789301;29;20077;-67
2022/06/16 01:07:12;;;;;;;4.50;4.10;;;;;;;23.93;57.89;100961.69;4789110;29;20499;-66
2022/06/16 01:09:42;;;;;;;6.70;5.18;;;;;;;23.98;57.38;100967.84;4789087;30;20539;-67
2022/06/16 01:15:32;;;;;;;6.10;5.32;;;;;;;23.83;58.19;100958.28;4788972;29;20086;-67
2022/06/16 01:18:20;;;;;;;6.57;4.93;;;;;;;23.83;58.08;100949.91;4788864;29;20055;-67
2022/06/16 01:20:52;;;;;;;8.90;5.15;;;;;;;23.71;58.36;100958.41;4788783;30;20407;-67
2022/06/16 01:23:58;;;;;;;7.88;5.43;;;;;;;23.71;58.37;100953.59;4779236;30;20056;-67
2022/06/16 01:26:45;;;;;;;6.55;4.53;;;;;;;23.75;58.28;100957.31;4772889;29;20527;-67
2022/06/16 01:29:36;;;;;;;5.82;5.20;;;;;;;23.69;59.09;100957.94;4784962;30;20059;-66
2022/06/16 01:32:16;;;;;;;5.57;4.97;;;;;;;23.90;58.48;100949.25;4802804;29;20048;-66
2022/06/16 01:34:47;;;;;;;6.45;4.88;;;;;;;23.74;59.34;100943.69;4801578;29;20066;-67
2022/06/16 01:37:31;;;;;;;6.80;5.20;;;;;;;23.71;59.93;100952.81;4802390;29;20415;-67
2022/06/16 01:40:06;;;;;;;6.38;5.47;;;;;;;23.78;59.64;100950.19;4787300;30;20051;-67
2022/06/16 01:42:41;;;;;;;8.20;5.13;;;;;;;23.75;59.95;100945.31;4802357;29;20055;-67
2022/06/16 01:45:43;;;;;;;6.90;4.95;;;;;;;23.75;59.69;100948.91;4786952;29;20070;-67
2022/06/16 01:48:18;;;;;;;8.57;4.72;;;;;;;23.78;59.79;100939.00;4800228;29;20526;-66
2022/06/16 01:50:58;;;;;;;6.32;5.25;;;;;;;23.58;60.58;100936.16;4802275;29;20527;-67
2022/06/16 01:53:35;;;;;;;6.20;5.43;;;;;;;23.51;60.67;100933.16;4787192;29;20067;-66
2022/06/16 01:56:16;;;;;;;6.95;5.07;;;;;;;23.30;61.72;100937.00;4788785;29;20055;-67
2022/06/16 01:58:49;;;;;;;5.65;4.88;;;;;;;23.17;61.97;100936.25;4802054;29;20051;-67
2022/06/16 02:01:21;;;;;;;6.65;4.88;;;;;;;23.20;62.20;100943.09;4787018;30;20070;-66
2022/06/16 02:03:57;;;;;;;9.88;5.20;;;;;;;23.28;61.97;100936.56;4801385;29;20070;-66
2022/06/16 02:06:31;;;;;;;6.50;4.82;;;;;;;23.34;61.77;100937.13;4801514;29;20062;-66
2022/06/16 02:09:12;;;;;;;4.93;4.45;;;;;;;23.34;61.59;100937.94;4801325;29;20063;-67
2022/06/16 02:11:42;;;;;;;6.30;4.60;;;;;;;23.13;62.47;100926.19;4788089;30;20511;-66
2022/06/16 02:14:24;;;;;;;8.57;5.47;;;;;;;22.92;63.07;100928.03;4801340;29;20059;-67
2022/06/16 02:16:57;;;;;;;6.20;5.43;;;;;;;22.78;63.68;100922.84;4786229;30;20062;-66
2022/06/16 02:19:31;;;;;;;6.40;5.45;;;;;;;22.73;64.01;100911.16;4801536;29;20058;-66
2022/06/16 02:22:01;;;;;;;6.10;5.28;;;;;;;22.61;64.52;100912.84;4786695;30;20530;-66
2022/06/16 02:24:30;;;;;;;6.78;4.80;;;;;;;22.78;64.04;100911.69;4786086;30;20055;-67
2022/06/16 02:27:00;;;;;;;4.63;4.20;;;;;;;22.93;63.83;100920.47;4787619;29;20059;-67
2022/06/16 02:29:34;;;;;;;6.40;4.97;;;;;;;22.98;63.70;100923.00;4787445;29;20063;-67
2022/06/16 02:32:37;;;;;;;6.10;4.13;;;;;;;22.79;64.55;100921.69;4787527;30;20051;-67
2022/06/16 02:35:37;;;;;;;4.65;4.25;;;;;;;22.68;65.11;100920.59;4786283;29;20063;-67
2022/06/16 02:38:12;;;;;;;5.82;4.32;;;;;;;22.68;65.01;100915.81;4785789;30;20055;-66
2022/06/16 02:41:26;;;;;;;5.45;4.95;;;;;;;22.60;65.26;100911.22;4786429;30;20404;-67
2022/06/16 02:44:41;;;;;;;5.50;4.60;;;;;;;22.79;64.73;100913.31;4786296;30;20051;-67
2022/06/16 02:47:48;;;;;;;6.00;5.00;;;;;;;22.71;65.14;100911.50;4787144;29;20055;-66
2022/06/16 02:50:44;;;;;;;4.82;4.32;;;;;;;22.58;65.95;100904.38;4800339;29;20070;-66
2022/06/16 02:56:30;;;;;;;5.97;4.80;;;;;;;22.64;65.86;100908.53;4778786;30;20530;-67
2022/06/16 02:59:03;;;;;;;6.22;5.20;;;;;;;22.67;65.80;100905.81;4787485;29;20162;-67
2022/06/16 03:01:33;;;;;;;5.85;5.25;;;;;;;22.65;65.74;100898.97;4787639;29;20835;-66
2022/06/16 03:04:07;;;;;;;5.95;5.07;;;;;;;22.57;66.24;100905.53;4800781;29;20055;-66
2022/06/16 03:06:35;;;;;;;6.68;5.50;;;;;;;22.46;66.84;100914.38;4785855;30;20047;-67
2022/06/16 03:09:04;;;;;;;6.20;5.05;;;;;;;22.53;66.48;100914.59;4787230;29;20665;-66
2022/06/16 03:11:34;;;;;;;6.07;5.22;;;;;;;22.32;67.53;100917.53;4785992;29;20043;-67
2022/06/16 03:14:05;;;;;;;6.03;5.43;;;;;;;22.24;68.02;100915.72;4785804;30;20495;-66
2022/06/16 03:16:38;;;;;;;5.93;4.97;;;;;;;22.34;67.78;100906.03;4800454;29;20063;-67
2022/06/16 03:19:07;;;;;;;5.97;4.80;;;;;;;22.23;68.24;100900.94;4800245;29;20389;-66
2022/06/16 03:21:35;;;;;;;5.65;5.10;;;;;;;22.14;68.93;100901.09;4787501;29;20059;-66
2022/06/16 03:24:04;;;;;;;5.15;4.65;;;;;;;22.18;68.49;100909.56;4776413;30;20100;-67
2022/06/16 03:26:32;;;;;;;5.60;4.95;;;;;;;22.23;68.26;100914.06;4782560;29;20407;-67
2022/06/16 03:29:00;;;;;;;6.32;4.90;;;;;;;22.44;67.65;100911.13;4780084;30;20408;-66
2022/06/16 03:31:29;;;;;;;6.68;4.75;;;;;;;22.46;67.38;100917.16;4773761;30;20055;-66
2022/06/16 03:33:57;;;;;;;5.65;4.70;;;;;;;22.46;67.39;100917.16;4785581;30;20444;-66
2022/06/16 03:36:30;;;;;;;9.27;5.68;;;;;;;22.37;68.04;100916.47;4800551;29;20051;-67
2022/06/16 03:39:01;;;;;;;6.78;4.90;;;;;;;22.36;67.93;100917.63;4785493;30;20055;-67
2022/06/16 03:41:29;;;;;;;8.60;5.28;;;;;;;22.38;67.84;100915.34;4785617;29;20067;-66
2022/06/16 03:44:02;;;;;;;5.60;4.75;;;;;;;22.55;67.25;100920.63;4785725;30;20070;-67
2022/06/16 03:46:30;;;;;;;5.28;4.63;;;;;;;22.36;67.98;100912.06;4778588;30;20067;-66
2022/06/16 03:49:08;;;;;;;5.85;5.22;;;;;;;22.32;67.98;100919.50;4774753;29;20118;-67
2022/06/16 03:51:48;;;;;;;6.72;5.18;;;;;;;22.35;68.13;100921.59;4789147;29;20063;-66
2022/06/16 03:54:22;;;;;;;7.10;4.90;;;;;;;22.14;68.94;100917.00;4768275;30;20041;-66
2022/06/16 03:56:56;;;;;;;7.03;5.13;;;;;;;22.05;69.41;100930.25;4769996;30;20064;-66
2022/06/16 03:59:25;;;;;;;5.57;4.97;;;;;;;22.15;69.25;100924.22;4794534;29;20546;-66
2022/06/16 04:01:59;;;;;;;10.55;6.03;;;;;;;22.40;68.13;100915.78;4757748;30;20420;-67
2022/06/16 04:04:32;;;;;;;5.65;5.15;;;;;;;22.35;68.48;100916.03;4784066;30;20515;-67
2022/06/16 04:07:03;;;;;;;5.65;4.50;;;;;;;22.48;67.96;100917.59;4783872;30;20060;-66
2022/06/16 04:09:32;;;;;;;6.13;4.57;;;;;;;22.51;68.10;100921.66;4756010;30;20048;-66
2022/06/16 04:12:04;;;;;;;7.03;5.40;;;;;;;22.49;67.81;100916.44;4779238;29;20060;-66
2022/06/16 04:14:34;;;;;;;6.95;5.35;;;;;;;22.47;68.07;100917.94;4760610;30;20047;-66
2022/06/16 04:17:04;;;;;;;7.32;5.05;;;;;;;22.40;68.33;100919.38;4770727;29;20064;-66
2022/06/16 04:20:11;;;;;;;6.95;5.45;;;;;;;22.45;68.42;100909.13;4783911;29;20511;-66
2022/06/16 04:22:39;;;;;;;8.65;5.65;;;;;;;22.79;66.51;100904.16;4782190;30;20050;-67
2022/06/16 04:25:14;;;;;;;5.97;4.97;;;;;;;22.66;66.72;100903.38;4760775;30;20068;-67
2022/06/16 04:27:43;;;;;;;7.80;4.97;;;;;;;22.71;66.43;100905.94;4773221;29;20314;-67
2022/06/16 04:30:15;;;;;;;5.63;4.93;;;;;;;22.61;66.28;100904.47;4775844;29;20052;-66
2022/06/16 04:32:44;;;;;;;5.65;4.72;;;;;;;22.57;66.73;100908.31;4780311;29;20040;-67
2022/06/16 04:35:23;;;;;;;5.38;4.88;;;;;;;22.53;66.73;100916.59;4773353;30;20503;-66
2022/06/16 04:38:03;;;;;;;8.18;4.82;;;;;;;22.62;66.79;100924.81;4785003;29;20060;-66
2022/06/16 04:40:34;;;;;;;7.20;4.60;;;;;;;23.02;65.49;100920.31;4786566;29;20047;-71
2022/06/16 04:43:06;;;;;;;6.88;5.40;;;;;;;23.32;64.62;100923.50;4755060;30;20067;-71
2022/06/16 04:45:38;;;;;;;6.07;4.80;;;;;;;23.50;64.51;100917.56;4784534;29;20064;-71
2022/06/16 04:48:09;;;;;;;8.07;5.20;;;;;;;23.62;63.99;100931.44;4774098;29;20063;-71
2022/06/16 04:50:42;;;;;;;6.47;5.25;;;;;;;23.78;62.91;100930.63;4777334;29;20056;-71
2022/06/16 04:53:15;;;;;;;6.43;4.72;;;;;;;24.07;62.00;100927.69;4782455;29;20082;-71
2022/06/16 04:56:19;;;;;;;6.63;4.90;;;;;;;24.01;62.24;100930.75;4752567;30;20064;-71
2022/06/16 04:58:56;;;;;;;6.07;4.88;;;;;;;24.07;62.30;100934.13;4768322;29;20059;-72
2022/06/16 05:01:44;;;;;;;6.72;5.07;;;;;;;24.16;62.14;100951.50;4771024;30;20052;-71
2022/06/16 05:04:42;;;;;;;6.93;5.28;;;;;;;24.22;61.73;100945.63;4785014;29;20050;-72
2022/06/16 05:07:20;;;;;;;6.00;5.22;;;;;;;24.29;61.41;100956.94;4770783;30;20052;-71
2022/06/16 05:10:03;;;;;;;8.65;5.38;;;;;;;24.31;61.32;100960.22;4778567;29;20048;-70
2022/06/16 05:12:39;;;;;;;6.28;5.68;;;;;;;24.49;60.95;100962.59;4766082;30;20043;-70
2022/06/16 05:15:45;;;;;;;6.22;5.38;;;;;;;24.58;60.23;100977.16;4773925;30;20047;-70
2022/06/16 05:18:36;;;;;;;8.48;5.15;;;;;;;24.61;60.47;100968.03;4776967;29;20062;-70
2022/06/16 05:21:18;;;;;;;9.88;5.50;;;;;;;24.85;59.59;100959.72;4782777;30;20170;-70
2022/06/16 05:24:20;;;;;;;9.88;4.72;;;;;;;25.15;58.48;100962.72;4765193;30;20055;-70
2022/06/16 05:26:54;;;;;;;6.32;4.63;;;;;;;25.20;58.32;100962.44;4777698;30;20168;-70
2022/06/16 05:29:43;;;;;;;6.70;4.63;;;;;;;25.32;57.89;100977.44;4793396;29;20503;-70
2022/06/16 05:32:27;;;;;;;10.88;5.20;;;;;;;25.35;58.16;100977.50;4774041;30;20044;-70
2022/06/16 05:35:19;;;;;;;5.85;4.97;;;;;;;25.56;56.81;100979.06;4785839;29;20541;-70
2022/06/16 05:38:13;;;;;;;12.48;4.97;;;;;;;25.54;56.66;100969.41;4777698;30;20055;-70
2022/06/16 05:41:01;;;;;;;9.90;5.10;;;;;;;25.65;56.14;100972.41;4785867;30;20047;-71
2022/06/16 05:43:50;;;;;;;7.13;4.93;;;;;;;25.69;56.32;100974.09;4771091;30;20044;-71
2022/06/16 05:46:40;;;;;;;5.82;4.85;;;;;;;25.70;54.98;100975.69;4768975;30;20059;-71
2022/06/16 05:49:12;;;;;;;5.65;4.82;;;;;;;25.78;55.07;100987.84;4779532;30;20055;-71
2022/06/16 05:51:42;;;;;;;5.90;5.30;;;;;;;25.73;55.37;100991.78;4783754;30;20062;-71
2022/06/16 05:54:12;;;;;;;5.90;4.40;;;;;;;25.77;55.09;100987.03;4768159;30;20082;-71
2022/06/16 05:56:43;;;;;;;7.13;4.40;;;;;;;25.88;54.50;100986.41;4775283;29;20050;-71
2022/06/16 05:59:11;;;;;;;7.63;4.47;;;;;;;26.02;54.48;100992.25;4760250;30;20067;-71
2022/06/16 06:01:45;;;;;;;6.97;4.10;;;;;;;26.13;54.00;100983.16;4780534;30;20055;-71
2022/06/16 06:04:13;;;;;;;7.03;4.78;;;;;;;26.25;53.79;100994.19;4782502;30;20054;-71
2022/06/16 06:06:44;;;;;;;4.78;4.28;;;;;;;26.41;53.36;100996.03;4783197;29;20047;-71
2022/06/16 06:18:10;;;;;;;4.97;4.50;;;;;;;26.77;50.77;100990.88;4774664;29;20048;-71
2022/06/16 06:20:38;;;;;;;6.68;4.30;;;;;;;26.89;50.01;100983.38;4774808;29;20048;-71
2022/06/16 06:23:07;;;;;;;6.25;4.03;;;;;;;26.98;49.81;100986.75;4765724;30;20385;-71
2022/06/16 06:25:35;;;;;;;5.13;3.80;;;;;;;27.04;49.62;100985.22;4770300;30;20040;-72
2022/06/16 06:28:04;;;;;;;5.50;4.30;;;;;;;27.10;48.21;101003.34;4780323;29;20052;-71
2022/06/16 06:30:33;;;;;;;6.55;5.05;;;;;;;27.04;47.94;100978.78;4773929;29;20048;-71
2022/06/16 06:33:04;;;;;;;5.95;3.83;;;;;;;27.06;48.27;100985.63;4764854;30;20060;-71
2022/06/16 06:35:32;;;;;;;6.30;3.90;;;;;;;26.99;47.83;100990.34;4776767;29;20083;-72
2022/06/16 06:38:00;;;;;;;4.20;3.80;;;;;;;27.00;47.68;100997.56;4763790;30;20052;-71
2022/06/16 06:40:32;;;;;;;5.82;4.07;;;;;;;26.95;47.92;101007.16;4764468;30;20060;-71
2022/06/16 06:43:01;;;;;;;4.90;4.15;;;;;;;26.98;48.31;101000.78;4763054;30;20055;-71
2022/06/16 06:45:29;;;;;;;5.82;4.05;;;;;;;26.99;47.99;101010.00;4764903;30;20052;-71
2022/06/16 06:47:57;;;;;;;5.45;3.58;;;;;;;26.92;48.32;100999.47;4761719;30;20088;-72
2022/06/16 06:50:36;;;;;;;4.50;3.47;;;;;;;26.94;48.61;101005.53;4765265;30;20052;-71
2022/06/16 06:53:05;;;;;;;5.38;3.47;;;;;;;26.88;47.40;101001.44;4765737;30;20062;-71
2022/06/16 06:55:37;;;;;;;4.88;3.85;;;;;;;26.77;48.13;100996.50;4785747;30;20043;-71
2022/06/16 06:58:06;;;;;;;4.78;3.75;;;;;;;26.80;48.12;100990.13;4787182;30;20055;-71
2022/06/16 07:00:34;;;;;;;7.57;3.58;;;;;;;26.91;47.90;100987.47;4787056;29;20059;-71
2022/06/16 07:03:02;;;;;;;4.07;3.55;;;;;;;27.02;47.46;100996.00;4787047;30;20507;-72
2022/06/16 07:05:30;;;;;;;7.15;3.83;;;;;;;27.05;47.79;100992.44;4786890;30;20051;-72
2022/06/16 07:07:58;;;;;;;5.88;4.28;;;;;;;27.26;47.75;100982.59;4800054;29;20055;-71
2022/06/16 07:10:26;;;;;;;4.97;4.18;;;;;;;27.44;47.88;100976.34;4786807;30;20431;-72
2022/06/16 07:12:55;;;;;;;4.53;4.13;;;;;;;27.57;47.38;100990.94;4800936;29;20060;-72
2022/06/16 07:15:23;;;;;;;8.30;4.28;;;;;;;27.62;46.64;100999.03;4786782;30;20071;-72
2022/06/16 07:17:51;;;;;;;4.53;4.13;;;;;;;27.79;46.57;101006.00;4773189;30;20055;-72
2022/06/16 07:20:19;;;;;;;7.25;4.03;;;;;;;27.90;46.76;101006.91;4786744;30;20061;-71
2022/06/16 07:22:47;;;;;;;6.43;5.15;;;;;;;27.80;46.33;101004.81;4778335;30;20048;-71
2022/06/16 07:25:15;;;;;;;7.45;4.88;;;;;;;27.67;47.01;101006.31;4770894;30;20480;-72
2022/06/16 07:27:44;;;;;;;8.32;4.32;;;;;;;27.75;47.07;101002.34;4780716;30;20508;-72
2022/06/16 07:30:17;;;;;;;6.78;4.65;;;;;;;27.67;46.61;100995.06;4768532;30;20446;-71
2022/06/16 07:32:47;;;;;;;5.28;4.78;;;;;;;27.53;46.96;100996.53;4786718;30;20051;-72
2022/06/16 07:35:18;;;;;;;4.10;3.70;;;;;;;27.55;47.22;100994.13;4786711;29;20070;-71
2022/06/16 07:37:46;;;;;;;5.85;4.80;;;;;;;27.63;47.53;101011.91;4786537;30;20047;-72
2022/06/16 07:40:17;;;;;;;6.93;4.97;;;;;;;27.55;47.71;101004.53;4786643;29;20055;-71
2022/06/16 07:42:45;;;;;;;4.57;4.15;;;;;;;27.64;47.37;100996.63;4786511;30;20059;-71
2022/06/16 07:45:14;;;;;;;9.38;5.45;;;;;;;27.71;46.86;100998.72;4786420;29;20423;-71
2022/06/16 07:47:42;;;;;;;5.63;4.80;;;;;;;27.80;47.24;100999.19;4786528;30;20063;-72
2022/06/16 07:50:12;;;;;;;5.93;5.13;;;;;;;27.87;46.48;100993.59;4774188;30;20051;-71
2022/06/16 07:52:40;;;;;;;7.75;5.00;;;;;;;27.90;46.08;100992.00;4778761;30;20047;-71
2022/06/16 07:55:09;;;;;;;6.88;4.82;;;;;;;28.10;46.22;100984.13;4781917;30;20054;-72
2022/06/16 07:57:46;;;;;;;6.75;5.00;;;;;;;28.21;45.88;100994.66;4786617;30;20518;-72
2022/06/16 08:00:24;;;;;;;9.73;5.00;;;;;;;28.25;45.20;100979.41;4786471;30;20063;-71
2022/06/16 08:02:54;;;;;;;6.60;4.65;;;;;;;28.13;45.63;100974.09;4786604;30;20051;-71
2022/06/16 08:05:23;;;;;;;8.00;4.40;;;;;;;28.18;45.95;100970.91;4786334;30;20051;-71
2022/06/16 08:07:51;;;;;;;9.27;5.30;;;;;;;28.34;45.33;100964.22;4786416;30;20055;-71
2022/06/16 08:10:23;;;;;;;7.15;4.68;;;;;;;28.33;45.23;100956.97;4786159;30;20051;-71
2022/06/16 08:12:51;;;;;;;4.68;4.20;;;;;;;28.28;45.16;100952.50;4785188;30;20048;-71
2022/06/16 08:15:20;;;;;;;6.65;4.85;;;;;;;28.12;44.81;100955.59;4786250;30;20056;-71
2022/06/16 08:17:50;;;;;;;4.70;4.10;;;;;;;28.21;44.89;100949.63;4786071;30;20400;-71
2022/06/16 08:20:19;;;;;;;6.28;4.80;;;;;;;28.29;44.77;100951.28;4786342;30;20044;-72
2022/06/16 08:22:46;;;;;;;4.93;4.30;;;;;;;28.41;45.15;100948.16;4785998;30;20058;-72
2022/06/16 08:25:17;;;;;;;5.88;4.38;;;;;;;28.57;44.59;100949.81;4786142;29;20127;-72
2022/06/16 08:27:48;;;;;;;6.13;4.80;;;;;;;28.73;44.63;100945.88;4785990;30;20064;-71
2022/06/16 08:30:17;;;;;;;7.97;5.40;;;;;;;28.72;44.56;100936.59;4786201;30;20055;-72
2022/06/16 08:32:51;;;;;;;7.22;4.38;;;;;;;28.84;44.79;100935.44;4786144;30;20526;-71
2022/06/16 08:35:20;;;;;;;6.05;5.10;;;;;;;28.99;43.59;100929.88;4788312;29;20051;-71
2022/06/16 08:37:48;;;;;;;10.48;5.13;;;;;;;29.00;43.67;100926.66;4803004;29;20062;-71
2022/06/16 08:40:18;;;;;;;5.50;4.40;;;;;;;29.08;43.55;100933.09;4789312;30;20055;-72
2022/06/16 08:42:58;;;;;;;7.38;3.90;;;;;;;29.20;43.57;100929.09;4787917;30;20055;-72
2022/06/16 08:45:40;;;;;;;4.78;4.22;;;;;;;29.19;43.34;100922.66;4789143;30;20498;-71
2022/06/16 08:48:36;;;;;;;7.65;5.30;;;;;;;29.11;42.72;100909.75;4789078;30;20047;-71
2022/06/16 08:51:11;;;;;;;5.70;4.72;;;;;;;29.04;43.46;100918.22;4789126;30;20047;-71
2022/06/16 08:54:10;;;;;;;6.90;5.55;;;;;;;28.99;43.24;100910.16;4776931;30;20066;-71
2022/06/16 08:57:05;;;;;;;10.30;6.20;;;;;;;28.79;44.49;100905.66;4789031;30;20059;-72
2022/06/16 08:59:53;;;;;;;8.70;5.80;;;;;;;29.06;43.32;100907.34;4779633;30;20495;-72
2022/06/16 09:02:41;;;;;;;7.30;5.60;;;;;;;29.13;43.46;100907.38;4789006;30;20051;-72
2022/06/16 09:05:40;;;;;;;8.35;5.88;;;;;;;29.12;43.52;100916.22;4789067;30;20377;-72
2022/06/16 09:08:34;;;;;;;7.05;6.35;;;;;;;29.18;43.36;100923.84;4780077;30;20051;-71
2022/06/16 09:11:17;;;;;;;9.18;6.00;;;;;;;29.27;43.21;100922.66;4779491;29;20055;-71
2022/06/16 09:15:10;;;;;;;7.40;6.18;;;;;;;29.37;43.23;100921.84;4788834;30;20059;-71
2022/06/16 09:17:39;;;;;;;8.13;5.82;;;;;;;29.43;42.68;100923.06;4788560;29;20410;-71
2022/06/16 09:20:47;;;;;;;8.65;6.40;;;;;;;29.58;42.57;100911.81;4788707;30;20059;-71
2022/06/16 09:23:36;;;;;;;7.55;6.25;;;;;;;29.69;42.72;100918.25;4772579;29;20059;-72
2022/06/16 09:26:06;;;;;;;9.90;7.28;;;;;;;29.87;41.91;100915.38;4788494;30;20059;-71
2022/06/16 09:28:50;;;;;;;11.73;7.10;;;;;;;29.82;42.04;100915.00;4788576;29;20074;-71
2022/06/16 09:31:43;;;;;;;10.07;5.93;;;;;;;29.87;42.64;100914.59;4788475;30;20083;-71
2022/06/16 09:34:19;;;;;;;6.97;6.13;;;;;;;29.99;42.20;100905.69;4802079;29;20051;-71
2022/06/16 09:36:53;;;;;;;8.70;5.72;;;;;;;30.10;41.82;100921.81;4788563;30;20059;-72
2022/06/16 09:39:34;;;;;;;8.48;6.60;;;;;;;30.04;41.36;100916.56;4801935;29;20051;-72
2022/06/16 09:42:32;;;;;;;10.05;6.95;;;;;;;30.11;42.25;100918.56;4788406;30;20054;-71
2022/06/16 09:45:07;;;;;;;8.60;7.20;;;;;;;30.37;40.54;100918.47;4787773;29;20408;-72
2022/06/16 09:47:55;;;;;;;9.07;7.00;;;;;;;30.42;40.97;100913.22;4787624;30;20055;-71
2022/06/16 09:50:50;;;;;;;6.70;5.75;;;;;;;30.51;40.82;100903.50;4777520;30;20051;-71
2022/06/16 09:53:33;;;;;;;6.57;5.95;;;;;;;30.58;40.76;100912.75;4775564;29;20056;-71
2022/06/16 09:56:18;;;;;;;7.00;5.82;;;;;;;30.78;40.95;100909.44;4777736;30;20051;-71
2022/06/16 09:58:55;;;;;;;9.75;5.93;;;;;;;30.87;40.10;100916.66;4787972;30;20047;-71
2022/06/16 10:01:31;;;;;;;10.00;7.25;;;;;;;30.94;39.98;100919.44;4788183;30;20055;-72
2022/06/16 10:04:03;;;;;;;8.45;5.93;;;;;;;30.86;40.47;100909.38;4787848;30;20058;-72
2022/06/16 10:07:00;;;;;;;8.88;6.78;;;;;;;30.62;40.22;100914.72;4787933;30;20058;-72
2022/06/16 10:09:42;;;;;;;6.45;5.80;;;;;;;30.57;40.79;100919.59;4787846;30;20055;-72
2022/06/16 10:12:36;;;;;;;7.30;6.60;;;;;;;30.57;40.98;100913.97;4786684;30;20422;-72
2022/06/16 10:15:30;;;;;;;8.90;6.95;;;;;;;30.79;40.30;100916.69;4787808;29;20097;-72
2022/06/16 10:17:58;;;;;;;;;;;;;;;30.92;40.44;100914.19;4788322;30;20123;-72
2022/06/16 10:20:29;;;;;;;8.15;6.28;;;;;;;31.11;39.79;100915.69;4787802;30;19926;-72
2022/06/16 10:23:24;;;;;;;7.55;6.22;;;;;;;31.13;39.75;100920.09;4788619;29;20050;-72
2022/06/16 10:25:59;;;;;;;7.95;6.00;;;;;;;31.32;39.22;100913.13;4774512;30;20076;-72
2022/06/16 10:28:32;;;;;;;7.22;6.47;;;;;;;31.48;39.17;100913.38;4782481;30;20499;-71
2022/06/16 10:31:09;;;;;;;8.65;6.40;;;;;;;31.53;38.99;100911.31;4763530;30;20060;-72
2022/06/16 10:34:01;;;;;;;6.18;5.57;;;;;;;31.53;38.92;100905.66;4787587;30;20047;-72
2022/06/16 10:36:30;;;;;;;7.30;6.43;;;;;;;31.58;38.44;100899.56;4794957;29;20051;-72
2022/06/16 10:39:30;;;;;;;5.88;5.13;;;;;;;31.72;38.52;100890.91;4787444;30;20047;-72
2022/06/16 10:42:20;;;;;;;7.85;6.22;;;;;;;31.59;38.32;100898.31;4787271;29;20043;-72
2022/06/16 10:44:59;;;;;;;8.82;6.00;;;;;;;31.65;38.59;100902.31;4771307;30;20047;-73
2022/06/16 10:47:34;;;;;;;7.78;6.07;;;;;;;31.69;38.79;100902.28;4768539;30;20063;-72
2022/06/16 10:50:05;;;;;;;6.22;5.07;;;;;;;31.98;38.60;100907.66;4780852;30;20405;-72
2022/06/16 10:52:40;;;;;;;7.68;6.20;;;;;;;32.21;37.85;100898.50;4772854;30;20443;-72
2022/06/16 10:55:11;;;;;;;7.50;6.13;;;;;;;32.31;37.85;100908.09;4777075;30;20055;-72
2022/06/16 10:57:48;;;;;;;8.55;6.72;;;;;;;32.50;37.00;100912.28;4767522;30;20059;-72
2022/06/16 11:00:22;;;;;;;7.88;5.35;;;;;;;32.61;37.43;100920.66;4767892;30;20054;-72
2022/06/16 11:02:58;;;;;;;7.50;6.18;;;;;;;32.55;36.86;100914.66;4773460;30;20051;-71
2022/06/16 11:05:30;;;;;;;10.75;5.32;;;;;;;32.40;37.41;100922.53;4764413;30;20504;-72
2022/06/16 11:08:10;;;;;;;8.95;5.82;;;;;;;32.30;36.81;100914.97;4766012;30;20504;-71
2022/06/16 11:11:00;;;;;;;7.80;5.45;;;;;;;32.61;36.92;100909.34;4772172;30;20051;-72
2022/06/16 11:13:47;;;;;;;8.70;5.93;;;;;;;32.72;36.62;100914.84;4767718;30;20052;-71
2022/06/16 11:16:31;;;;;;;8.20;5.32;;;;;;;32.83;36.56;100911.84;4780572;30;20066;-72
2022/06/16 11:19:09;;;;;;;5.13;4.65;;;;;;;32.79;35.92;100911.09;4795531;29;20047;-72
2022/06/16 11:21:46;;;;;;;7.65;4.97;;;;;;;32.70;36.54;100901.09;4770401;30;20062;-71
2022/06/16 11:24:25;;;;;;;;;;;;;;;32.56;36.31;100895.66;4767817;30;20066;-71
2022/06/16 11:27:23;;;;;;;6.20;5.60;;;;;;;32.44;36.94;100891.34;4767246;30;19926;-72
2022/06/16 11:29:54;;;;;;;5.80;5.28;;;;;;;32.36;37.64;100893.47;4753715;30;20060;-72
2022/06/16 11:32:28;;;;;;;5.30;4.80;;;;;;;32.38;37.46;100882.50;4767152;30;20051;-72
2022/06/16 11:34:57;;;;;;;5.85;5.25;;;;;;;32.59;37.18;100891.94;4766902;30;20059;-72
2022/06/16 11:37:58;;;;;;;7.03;6.13;;;;;;;32.54;37.05;100881.13;4767179;30;20074;-72
2022/06/16 11:40:44;;;;;;;6.28;5.13;;;;;;;32.62;36.42;100882.59;4766725;30;20505;-72
2022/06/16 11:43:34;;;;;;;5.90;5.22;;;;;;;32.67;36.79;100878.47;4766213;30;20062;-72
2022/06/16 11:46:11;;;;;;;6.10;5.50;;;;;;;32.78;36.70;100875.50;4767112;30;20670;-72
2022/06/16 11:48:52;;;;;;;6.57;5.60;;;;;;;32.92;36.10;100865.97;4767252;30;20055;-72
2022/06/16 11:51:38;;;;;;;6.38;5.78;;;;;;;33.23;36.13;100852.50;4767148;30;20047;-71
2022/06/16 11:54:18;;;;;;;5.88;5.32;;;;;;;33.49;35.47;100852.88;4778716;30;20044;-71
2022/06/16 11:56:46;;;;;;;5.90;4.85;;;;;;;33.55;35.47;100855.22;4780448;30;20043;-72
2022/06/16 11:59:45;;;;;;;5.72;5.10;;;;;;;33.63;35.30;100853.88;4768591;30;20059;-72
2022/06/16 12:02:28;;;;;;;5.97;5.38;;;;;;;33.68;34.90;100846.88;4766986;30;20051;-71
2022/06/16 12:05:20;;;;;;;5.78;5.25;;;;;;;33.74;34.90;100847.97;4770152;30;20067;-72
2022/06/16 12:08:32;;;;;;;6.35;5.15;;;;;;;33.82;34.59;100845.78;4763218;30;20043;-72
2022/06/16 12:11:27;;;;;;;5.53;4.90;;;;;;;33.78;34.51;100837.38;4762658;29;20044;-72
2022/06/16 12:14:30;;;;;;;;;;;;;;;33.59;34.22;100830.44;4765459;30;20047;-73
2022/06/16 12:17:16;;;;;;;5.53;4.75;;;;;;;33.81;34.02;100830.00;4762549;30;20386;-72
2022/06/16 12:20:12;;;;;;;5.60;5.10;;;;;;;33.81;33.55;100827.97;4760894;30;20481;-72
2022/06/16 12:23:15;;;;;;;5.95;5.32;;;;;;;33.95;34.13;100824.03;4759677;30;20042;-73
2022/06/16 12:25:52;;;;;;;5.72;5.18;;;;;;;34.20;34.34;100830.44;4761814;30;20048;-73
2022/06/16 12:28:36;;;;;;;5.28;4.78;;;;;;;34.37;33.49;100828.44;4766121;30;20059;-72
2022/06/16 12:31:17;;;;;;;5.60;5.07;;;;;;;34.15;33.67;100826.06;4763511;30;20056;-73
2022/06/16 12:34:14;;;;;;;7.88;5.10;;;;;;;34.21;34.09;100832.84;4763791;30;20064;-73
2022/06/16 12:36:50;;;;;;;7.25;4.93;;;;;;;34.37;32.91;100829.25;4765888;30;20071;-72
2022/06/16 12:39:24;;;;;;;7.13;4.97;;;;;;;34.48;33.37;100822.50;4766162;30;20059;-72